createdAt,value
2023-03-29T00:01:35.383Z,1.33
2023-03-29T00:04:09.028Z,1.10
2023-03-29T00:06:35.648Z,1.42
2023-03-29T00:09:02.399Z,1.25
2023-03-29T00:11:33.481Z,1.73
2023-03-29T00:13:59.795Z,1.10
2023-03-29T00:16:27.404Z,1.45
2023-03-29T00:18:58.880Z,1.95
2023-03-29T00:21:27.640Z,1.60
2023-03-29T00:23:53.968Z,1.73
2023-03-29T00:26:20.259Z,1.52
2023-03-29T00:28:46.574Z,1.48
2023-03-29T00:31:17.689Z,1.50
2023-03-29T00:33:45.710Z,1.50
2023-03-29T00:36:17.007Z,0.90
2023-03-29T00:38:46.325Z,1.30
2023-03-29T00:41:15.127Z,0.73
2023-03-29T00:44:01.055Z,1.02
2023-03-29T00:46:31.030Z,1.80
2023-03-29T00:49:04.789Z,1.27
2023-03-29T00:51:34.643Z,1.10
2023-03-29T00:54:05.904Z,1.52
2023-03-29T00:56:36.665Z,0.68
2023-03-29T01:01:56.075Z,1.38
2023-03-29T01:04:46.669Z,0.68
2023-03-29T01:07:27.481Z,1.35
2023-03-29T01:09:59.683Z,1.52
2023-03-29T01:12:33.432Z,0.80
2023-03-29T01:15:05.373Z,1.48
2023-03-29T01:17:31.977Z,1.23
2023-03-29T01:20:03.774Z,1.63
2023-03-29T01:22:44.073Z,1.05
2023-03-29T01:25:20.546Z,2.00
2023-03-29T01:28:13.417Z,1.00
2023-03-29T01:30:48.376Z,1.33
2023-03-29T01:33:20.741Z,1.23
2023-03-29T01:36:13.818Z,0.90
2023-03-29T01:38:47.775Z,0.93
2023-03-29T01:41:14.202Z,1.02
2023-03-29T01:43:50.462Z,1.02
2023-03-29T01:46:35.362Z,1.63
2023-03-29T01:49:14.895Z,1.48
2023-03-29T01:51:59.764Z,1.25
2023-03-29T01:54:36.057Z,1.92
2023-03-29T01:57:08.629Z,1.10
2023-03-29T01:59:39.164Z,1.40
2023-03-29T02:02:13.276Z,1.33
2023-03-29T02:04:43.566Z,2.60
2023-03-29T02:07:10.548Z,0.70
2023-03-29T02:09:38.669Z,1.23
2023-03-29T02:12:07.706Z,1.77
2023-03-29T02:14:34.118Z,1.40
2023-03-29T02:17:24.838Z,1.88
2023-03-29T02:19:59.968Z,1.83
2023-03-29T02:22:33.629Z,1.92
2023-03-29T02:25:04.104Z,1.95
2023-03-29T02:27:30.506Z,1.30
2023-03-29T02:29:59.188Z,1.50
2023-03-29T02:32:34.160Z,1.42
2023-03-29T02:35:07.250Z,1.77
2023-03-29T02:37:40.024Z,1.80
2023-03-29T02:40:08.760Z,0.98
2023-03-29T02:42:36.474Z,1.58
2023-03-29T02:45:06.831Z,1.58
2023-03-29T02:47:42.206Z,1.58
2023-03-29T02:50:08.822Z,1.80
2023-03-29T02:52:40.629Z,1.60
2023-03-29T02:55:12.334Z,2.00
2023-03-29T02:57:38.679Z,1.88
2023-03-29T03:00:07.928Z,2.00
2023-03-29T03:02:37.059Z,1.98
2023-03-29T03:05:04.674Z,2.10
2023-03-29T03:07:31.251Z,1.88
2023-03-29T03:10:00.135Z,2.30
2023-03-29T03:12:30.185Z,1.85
2023-03-29T03:14:56.544Z,2.58
2023-03-29T03:17:22.913Z,2.28
2023-03-29T03:19:51.903Z,1.98
2023-03-29T03:22:18.228Z,1.60
2023-03-29T03:24:52.925Z,2.28
2023-03-29T03:27:19.262Z,1.92
2023-03-29T03:29:48.046Z,2.17
2023-03-29T03:32:14.406Z,1.27
2023-03-29T03:34:43.518Z,2.13
2023-03-29T03:37:09.837Z,2.08
2023-03-29T03:39:37.318Z,2.40
2023-03-29T03:42:11.279Z,1.77
2023-03-29T03:44:37.630Z,2.13
2023-03-29T03:47:05.044Z,1.65
2023-03-29T03:49:31.385Z,1.73
2023-03-29T03:51:57.937Z,1.67
2023-03-29T03:54:24.352Z,1.67
2023-03-29T03:56:56.801Z,2.25
2023-03-29T03:59:23.367Z,1.63
2023-03-29T04:01:49.714Z,1.85
2023-03-29T04:04:17.432Z,1.20
2023-03-29T04:06:43.999Z,2.22
2023-03-29T04:09:13.088Z,1.55
2023-03-29T04:11:39.523Z,1.60
2023-03-29T04:14:06.059Z,1.33
2023-03-29T04:16:32.440Z,1.80
2023-03-29T04:18:58.813Z,1.63
2023-03-29T04:21:25.285Z,1.50
2023-03-29T04:23:52.129Z,1.42
2023-03-29T04:26:18.549Z,1.95
2023-03-29T04:28:44.947Z,2.40
2023-03-29T04:31:12.883Z,1.90
2023-03-29T04:33:44.218Z,1.60
2023-03-29T04:36:13.913Z,1.85
2023-03-29T04:38:43.356Z,1.83
2023-03-29T04:41:13.777Z,2.17
2023-03-29T04:43:42.884Z,2.30
2023-03-29T04:46:15.420Z,1.48
2023-03-29T04:48:41.961Z,1.75
2023-03-29T04:51:08.259Z,1.75
2023-03-29T04:53:35.066Z,1.45
2023-03-29T04:56:04.891Z,1.63
2023-03-29T04:58:32.527Z,1.23
2023-03-29T05:00:59.581Z,1.38
2023-03-29T05:03:28.851Z,1.85
2023-03-29T05:05:55.285Z,1.42
2023-03-29T05:08:21.627Z,1.63
2023-03-29T05:10:48.035Z,1.55
2023-03-29T05:13:14.978Z,1.90
2023-03-29T05:15:42.366Z,2.13
2023-03-29T05:18:17.610Z,1.60
2023-03-29T05:20:44.282Z,2.08
2023-03-29T05:23:10.593Z,2.10
2023-03-29T05:25:36.917Z,1.85
2023-03-29T05:28:04.593Z,1.23
2023-03-29T05:30:36.933Z,1.75
2023-03-29T05:33:03.380Z,2.10
2023-03-29T05:35:32.911Z,1.52
2023-03-29T05:37:59.467Z,2.13
2023-03-29T05:40:26.052Z,1.13
2023-03-29T05:42:53.104Z,1.52
2023-03-29T05:45:21.839Z,1.55
2023-03-29T05:47:50.614Z,1.80
2023-03-29T05:50:19.447Z,2.00
2023-03-29T05:52:48.301Z,2.03
2023-03-29T05:55:14.680Z,2.40
2023-03-29T05:57:43.507Z,1.50
2023-03-29T06:00:10.379Z,1.88
2023-03-29T06:02:36.870Z,2.28
2023-03-29T06:05:03.677Z,1.65
2023-03-29T06:07:30.148Z,0.85
2023-03-29T06:09:56.458Z,1.40
2023-03-29T06:12:24.010Z,2.58
2023-03-29T06:14:50.465Z,2.20
2023-03-29T06:26:27.855Z,2.00
2023-03-29T06:31:30.277Z,1.52
2023-03-29T06:33:58.154Z,2.70
2023-03-29T06:36:24.889Z,2.20
2023-03-29T06:38:54.332Z,2.00
2023-03-29T06:41:21.029Z,2.05
2023-03-29T06:43:47.667Z,3.38
2023-03-29T06:46:14.486Z,2.45
2023-03-29T06:48:47.393Z,1.92
2023-03-29T06:51:16.389Z,3.00
2023-03-29T06:53:43.524Z,2.42
2023-03-29T06:56:11.163Z,2.03
2023-03-29T06:58:37.831Z,2.53
2023-03-29T07:01:11.540Z,2.53
2023-03-29T07:03:38.457Z,2.92
2023-03-29T07:06:09.483Z,2.70
2023-03-29T07:08:40.675Z,2.30
2023-03-29T07:11:08.947Z,4.43
2023-03-29T07:13:37.969Z,3.53
2023-03-29T07:16:08.520Z,3.58
2023-03-29T07:18:38.153Z,2.15
2023-03-29T07:21:08.246Z,3.15
2023-03-29T07:23:37.381Z,3.22
2023-03-29T07:29:40.093Z,3.08
2023-03-29T07:32:07.934Z,2.85
2023-03-29T07:34:34.728Z,2.95
2023-03-29T07:37:01.504Z,2.33
2023-03-29T07:39:39.939Z,3.22
2023-03-29T07:42:07.894Z,2.72
2023-03-29T07:44:41.750Z,2.28
2023-03-29T07:47:11.295Z,2.58
2023-03-29T07:49:44.544Z,3.83
2023-03-29T07:52:11.118Z,2.60
2023-03-29T07:54:38.345Z,3.20
2023-03-29T07:57:05.352Z,3.70
2023-03-29T07:59:33.491Z,4.40
2023-03-29T08:02:04.821Z,2.63
2023-03-29T08:04:34.437Z,2.63
2023-03-29T08:07:01.379Z,3.85
2023-03-29T08:09:30.947Z,3.25
2023-03-29T08:12:00.150Z,3.80
2023-03-29T08:14:27.073Z,4.10
2023-03-29T08:17:01.507Z,4.72
2023-03-29T08:19:28.442Z,3.45
2023-03-29T08:22:01.883Z,3.67
2023-03-29T08:24:29.092Z,3.25
2023-03-29T08:26:58.500Z,4.13
2023-03-29T08:29:31.663Z,4.60
2023-03-29T08:31:58.094Z,3.53
2023-03-29T08:34:24.455Z,4.10
2023-03-29T08:36:50.953Z,4.45
2023-03-29T08:39:19.466Z,4.38
2023-03-29T08:41:59.580Z,4.70
2023-03-29T08:44:54.951Z,3.92
2023-03-29T08:47:29.958Z,3.17
2023-03-29T08:49:57.756Z,4.35
2023-03-29T08:52:51.261Z,4.93
2023-03-29T08:55:24.859Z,5.18
2023-03-29T08:57:58.665Z,4.95
2023-03-29T09:00:34.292Z,4.20
2023-03-29T09:03:00.763Z,3.72
2023-03-29T09:05:32.714Z,2.92
2023-03-29T09:08:01.626Z,3.80
2023-03-29T09:10:40.622Z,4.90
2023-03-29T09:13:39.479Z,3.40
2023-03-29T09:16:41.545Z,4.97
2023-03-29T09:19:44.678Z,3.97
2023-03-29T09:22:43.915Z,5.40
2023-03-29T09:25:25.459Z,4.07
2023-03-29T09:28:02.185Z,3.83
2023-03-29T09:30:39.615Z,5.93
2023-03-29T09:33:17.020Z,4.90
2023-03-29T09:35:53.102Z,5.53
2023-03-29T09:38:27.134Z,5.65
2023-03-29T09:40:57.709Z,3.80
2023-03-29T09:46:23.098Z,3.97
2023-03-29T09:48:50.679Z,4.28
2023-03-29T09:51:19.354Z,4.60
2023-03-29T09:53:48.920Z,4.20
2023-03-29T09:56:17.634Z,4.63
2023-03-29T09:58:45.372Z,5.47
2023-03-29T10:01:15.387Z,4.78
2023-03-29T10:03:48.727Z,5.35
2023-03-29T10:06:20.553Z,4.18
2023-03-29T10:09:08.857Z,5.30
2023-03-29T10:14:15.602Z,4.85
2023-03-29T10:16:43.807Z,5.18
2023-03-29T10:19:19.573Z,5.70
2023-03-29T10:21:50.441Z,6.22
2023-03-29T10:24:29.471Z,6.40
2023-03-29T10:27:09.580Z,5.68
2023-03-29T10:29:48.027Z,7.47
2023-03-29T10:32:26.050Z,6.45
2023-03-29T10:34:52.953Z,7.78
2023-03-29T10:37:24.587Z,7.57
2023-03-29T10:39:55.292Z,7.63
2023-03-29T10:42:25.269Z,6.40
2023-03-29T10:44:54.703Z,6.15
2023-03-29T10:47:23.317Z,7.90
2023-03-29T10:49:56.366Z,6.70
2023-03-29T10:52:23.382Z,7.03
2023-03-29T10:54:51.598Z,7.45
2023-03-29T10:57:29.573Z,8.50
2023-03-29T11:00:17.404Z,7.93
2023-03-29T11:03:06.027Z,6.70
2023-03-29T11:05:36.015Z,5.43
2023-03-29T11:08:29.099Z,7.50
2023-03-29T11:11:06.831Z,7.93
2023-03-29T11:13:37.713Z,8.25
2023-03-29T11:16:35.481Z,8.25
2023-03-29T11:19:35.012Z,7.55
2023-03-29T11:22:22.824Z,7.45
2023-03-29T11:25:23.397Z,7.93
2023-03-29T11:28:01.764Z,8.27
2023-03-29T11:30:41.514Z,6.65
2023-03-29T11:33:21.643Z,7.85
2023-03-29T11:36:08.675Z,8.65
2023-03-29T11:38:53.427Z,8.27
2023-03-29T11:41:28.005Z,6.43
2023-03-29T11:44:10.858Z,7.22
2023-03-29T11:46:44.772Z,8.20
2023-03-29T11:49:26.569Z,7.47
2023-03-29T11:52:16.610Z,9.15
2023-03-29T11:54:52.338Z,10.25
2023-03-29T11:57:42.239Z,10.02
2023-03-29T12:00:21.379Z,9.90
2023-03-29T12:02:53.898Z,9.55
2023-03-29T12:05:30.873Z,10.27
2023-03-29T12:08:13.406Z,7.93
2023-03-29T12:10:53.272Z,9.60
2023-03-29T12:13:33.762Z,8.57
2023-03-29T12:16:08.736Z,7.78
2023-03-29T12:18:48.538Z,10.90
2023-03-29T12:21:19.875Z,10.23
2023-03-29T12:23:49.747Z,9.75
2023-03-29T12:26:46.596Z,11.40
2023-03-29T12:29:41.665Z,9.45
2023-03-29T12:32:29.925Z,10.07
2023-03-29T12:37:58.873Z,6.60
2023-03-29T12:40:27.772Z,9.95
2023-03-29T12:43:07.719Z,10.68
2023-03-29T12:45:39.280Z,10.18
2023-03-29T12:48:07.455Z,11.32
2023-03-29T12:50:44.382Z,10.60
2023-03-29T12:53:22.814Z,9.57
2023-03-29T12:55:54.456Z,9.32
2023-03-29T12:58:29.476Z,10.30
2023-03-29T13:01:08.977Z,9.52
2023-03-29T13:03:47.617Z,9.00
2023-03-29T13:06:29.287Z,9.50
2023-03-29T13:09:26.381Z,9.45
2023-03-29T13:11:54.695Z,10.25
2023-03-29T13:14:24.139Z,9.80
2023-03-29T13:16:52.187Z,10.75
2023-03-29T13:19:27.770Z,10.65
2023-03-29T13:22:12.846Z,9.43
2023-03-29T13:24:46.650Z,9.00
2023-03-29T13:27:37.738Z,9.90
2023-03-29T13:30:23.154Z,9.70
2023-03-29T13:32:49.451Z,9.95
2023-03-29T13:35:27.830Z,10.13
2023-03-29T13:38:18.169Z,10.63
2023-03-29T13:41:03.007Z,10.35
2023-03-29T13:43:33.433Z,10.65
2023-03-29T13:48:48.736Z,9.95
2023-03-29T13:51:18.204Z,11.02
2023-03-29T13:53:51.175Z,9.07
2023-03-29T13:56:26.835Z,10.10
2023-03-29T13:59:07.637Z,10.27
2023-03-29T14:01:41.844Z,8.15
2023-03-29T14:04:15.834Z,10.02
2023-03-29T14:06:47.890Z,9.30
2023-03-29T14:09:20.033Z,11.73
2023-03-29T14:11:50.747Z,10.25
2023-03-29T14:14:25.640Z,10.00
2023-03-29T14:16:55.366Z,9.15
2023-03-29T14:19:38.855Z,10.48
2023-03-29T14:22:13.046Z,9.65
2023-03-29T14:24:45.521Z,10.05
2023-03-29T14:27:12.306Z,10.80
2023-03-29T14:29:38.750Z,10.10
2023-03-29T14:32:12.525Z,10.50
2023-03-29T14:34:41.737Z,10.43
2023-03-29T14:37:15.070Z,12.07
2023-03-29T14:39:41.880Z,9.95
2023-03-29T14:42:28.897Z,8.75
2023-03-29T14:45:03.086Z,8.45
2023-03-29T14:47:31.952Z,8.68
2023-03-29T14:49:59.152Z,8.50
2023-03-29T14:52:29.517Z,8.57
2023-03-29T14:57:33.664Z,7.85
2023-03-29T15:00:16.505Z,7.82
2023-03-29T15:03:15.833Z,7.35
2023-03-29T15:05:47.778Z,9.07
2023-03-29T15:08:19.169Z,8.98
2023-03-29T15:10:45.576Z,8.15
2023-03-29T15:13:20.109Z,7.35
2023-03-29T15:15:47.141Z,7.00
2023-03-29T15:18:16.135Z,6.70
2023-03-29T15:20:48.159Z,6.65
2023-03-29T15:23:14.660Z,5.82
2023-03-29T15:25:54.908Z,6.70
2023-03-29T15:28:26.099Z,6.07
2023-03-29T15:31:07.145Z,5.13
2023-03-29T15:33:36.886Z,5.00
2023-03-29T15:36:09.188Z,6.05
2023-03-29T15:38:43.992Z,5.80
2023-03-29T15:41:12.191Z,5.88
2023-03-29T15:43:44.689Z,6.38
2023-03-29T15:46:17.155Z,5.60
2023-03-29T15:48:43.495Z,5.93
2023-03-29T15:51:11.540Z,6.18
2023-03-29T15:53:38.933Z,4.50
2023-03-29T15:56:08.689Z,4.95
2023-03-29T15:58:39.268Z,4.72
2023-03-29T16:01:21.612Z,2.80
2023-03-29T16:03:48.313Z,3.88
2023-03-29T16:06:15.394Z,3.97
2023-03-29T16:08:41.949Z,5.00
2023-03-29T16:11:08.275Z,5.53
2023-03-29T16:13:36.315Z,5.00
2023-03-29T16:16:03.006Z,5.00
2023-03-29T16:18:29.609Z,4.95
2023-03-29T16:21:01.115Z,4.47
2023-03-29T16:23:31.878Z,5.10
2023-03-29T16:25:58.238Z,7.50
2023-03-29T16:28:26.452Z,6.20
2023-03-29T16:30:52.799Z,6.05
2023-03-29T16:33:19.140Z,7.55
2023-03-29T16:35:45.484Z,5.45
2023-03-29T16:38:14.095Z,4.40
2023-03-29T16:40:40.509Z,4.20
2023-03-29T16:43:14.640Z,5.32
2023-03-29T16:45:42.030Z,4.80
2023-03-29T16:48:16.303Z,4.45
2023-03-29T16:50:43.529Z,4.10
2023-03-29T16:53:10.118Z,4.85
2023-03-29T16:55:39.540Z,4.93
2023-03-29T16:58:08.905Z,4.97
2023-03-29T17:00:35.298Z,5.20
2023-03-29T17:03:01.690Z,5.40
2023-03-29T17:05:37.039Z,5.88
2023-03-29T17:08:07.282Z,5.28
2023-03-29T17:10:35.833Z,4.78
2023-03-29T17:13:04.566Z,5.32
2023-03-29T17:15:35.595Z,4.57
2023-03-29T17:18:03.390Z,5.05
2023-03-29T17:20:33.291Z,5.20
2023-03-29T17:23:04.271Z,4.45
2023-03-29T17:25:33.123Z,5.25
2023-03-29T17:28:00.149Z,4.95
2023-03-29T17:30:28.631Z,4.57
2023-03-29T17:32:56.776Z,4.68
2023-03-29T17:35:30.916Z,4.68
2023-03-29T17:37:58.367Z,4.65
2023-03-29T17:40:25.037Z,5.30
2023-03-29T17:42:54.735Z,4.38
2023-03-29T17:45:21.795Z,4.35
2023-03-29T17:47:48.246Z,4.88
2023-03-29T17:50:17.447Z,5.90
2023-03-29T17:52:57.020Z,5.43
2023-03-29T17:55:23.363Z,4.75
2023-03-29T17:57:49.803Z,5.65
2023-03-29T18:00:16.686Z,6.05
2023-03-29T18:02:43.298Z,5.40
2023-03-29T18:05:09.961Z,5.97
2023-03-29T18:07:39.818Z,5.60
2023-03-29T18:10:08.867Z,4.90
2023-03-29T18:12:35.723Z,5.38
2023-03-29T18:15:02.973Z,7.45
2023-03-29T18:17:31.727Z,6.82
2023-03-29T18:19:58.200Z,6.15
2023-03-29T18:22:24.711Z,6.05
2023-03-29T18:24:51.074Z,6.20
2023-03-29T18:27:17.748Z,6.70
2023-03-29T18:29:44.259Z,6.03
2023-03-29T18:32:11.247Z,6.35
2023-03-29T18:34:37.800Z,7.28
2023-03-29T18:37:04.097Z,7.60
2023-03-29T18:39:33.462Z,7.95
2023-03-29T18:42:00.107Z,7.70
2023-03-29T18:44:26.466Z,7.45
2023-03-29T18:46:53.108Z,6.53
2023-03-29T18:49:19.549Z,7.40
2023-03-29T18:51:45.834Z,6.28
2023-03-29T18:54:12.205Z,6.28
2023-03-29T18:56:38.682Z,6.25
2023-03-29T18:59:06.320Z,5.90
2023-03-29T19:01:35.187Z,5.72
2023-03-29T19:04:01.965Z,7.70
2023-03-29T19:06:28.324Z,5.88
2023-03-29T19:08:54.764Z,6.65
2023-03-29T19:11:21.141Z,6.97
2023-03-29T19:13:47.444Z,7.95
2023-03-29T19:16:13.850Z,8.15
2023-03-29T19:18:40.213Z,9.63
2023-03-29T19:21:09.332Z,10.45
2023-03-29T19:23:37.513Z,8.35
2023-03-29T19:26:05.746Z,7.63
2023-03-29T19:28:35.232Z,9.30
2023-03-29T19:31:10.025Z,8.52
2023-03-29T19:33:36.403Z,7.18
2023-03-29T19:36:06.359Z,6.82
2023-03-29T19:38:32.945Z,6.07
2023-03-29T19:41:01.781Z,6.00
2023-03-29T19:43:30.315Z,6.72
2023-03-29T19:45:56.653Z,5.57
2023-03-29T19:48:24.051Z,5.60
2023-03-29T19:51:02.721Z,3.78
2023-03-29T19:53:30.067Z,6.30
2023-03-29T19:55:56.734Z,4.78
2023-03-29T19:58:23.125Z,5.20
2023-03-29T20:00:49.510Z,5.68
2023-03-29T20:03:17.535Z,5.18
2023-03-29T20:05:46.251Z,5.20
2023-03-29T20:08:14.123Z,5.40
2023-03-29T20:10:40.553Z,4.95
2023-03-29T20:13:06.925Z,5.43
2023-03-29T20:15:33.833Z,5.70
2023-03-29T20:18:00.259Z,5.32
2023-03-29T20:20:28.621Z,5.95
2023-03-29T20:22:55.101Z,7.00
2023-03-29T20:25:26.272Z,5.55
2023-03-29T20:27:52.629Z,6.03
2023-03-29T20:30:21.502Z,7.57
2023-03-29T20:32:47.874Z,7.18
2023-03-29T20:35:16.551Z,6.78
2023-03-29T20:37:42.899Z,7.28
2023-03-29T20:40:10.173Z,6.47
2023-03-29T20:42:37.879Z,6.50
2023-03-29T20:45:08.296Z,6.72
2023-03-29T20:47:37.160Z,6.20
2023-03-29T20:50:05.977Z,6.70
2023-03-29T20:52:32.320Z,5.60
2023-03-29T20:54:58.628Z,6.10
2023-03-29T20:57:24.998Z,5.93
2023-03-29T20:59:51.299Z,5.78
2023-03-29T21:02:21.407Z,4.93
2023-03-29T21:04:52.772Z,3.55
2023-03-29T21:07:22.098Z,4.72
2023-03-29T21:09:48.465Z,4.50
2023-03-29T21:12:14.809Z,5.90
2023-03-29T21:14:41.288Z,5.28
2023-03-29T21:17:07.627Z,4.68
2023-03-29T21:19:37.318Z,3.53
2023-03-29T21:22:06.436Z,4.40
2023-03-29T21:24:33.517Z,5.05
2023-03-29T21:27:02.701Z,5.07
2023-03-29T21:29:29.054Z,4.15
2023-03-29T21:31:55.624Z,4.78
2023-03-29T21:34:22.155Z,5.03
2023-03-29T21:36:50.805Z,3.83
2023-03-29T21:39:17.137Z,4.32
2023-03-29T21:41:46.402Z,4.38
2023-03-29T21:44:13.916Z,4.70
2023-03-29T21:46:41.476Z,4.65
2023-03-29T21:49:07.862Z,4.65
2023-03-29T21:51:34.271Z,3.80
2023-03-29T21:54:02.405Z,4.22
2023-03-29T21:56:30.394Z,4.88
2023-03-29T21:58:56.738Z,4.10
2023-03-29T22:01:23.073Z,3.88
2023-03-29T22:03:49.402Z,4.70
2023-03-29T22:06:15.736Z,3.85
2023-03-29T22:08:44.424Z,5.38
2023-03-29T22:11:13.377Z,4.60
2023-03-29T22:13:40.504Z,4.88
2023-03-29T22:16:09.060Z,4.78
2023-03-29T22:18:38.703Z,4.30
2023-03-29T22:21:05.144Z,4.68
2023-03-29T22:23:33.733Z,4.40
2023-03-29T22:26:04.986Z,3.60
2023-03-29T22:28:35.125Z,3.42
2023-03-29T22:31:04.995Z,4.15
2023-03-29T22:33:35.369Z,2.85
2023-03-29T22:36:03.129Z,2.95
2023-03-29T22:38:29.533Z,3.15
2023-03-29T22:40:55.900Z,2.33
2023-03-29T22:43:22.237Z,3.92
2023-03-29T22:45:48.820Z,2.67
2023-03-29T22:48:21.141Z,3.50
2023-03-29T22:50:47.811Z,3.53
2023-03-29T22:53:14.323Z,2.55
2023-03-29T22:55:41.853Z,2.70
2023-03-29T22:58:18.694Z,2.58
2023-03-29T23:00:47.973Z,2.92
2023-03-29T23:03:14.542Z,2.00
2023-03-29T23:05:40.837Z,3.33
2023-03-29T23:08:07.284Z,3.05
2023-03-29T23:10:33.852Z,2.92
2023-03-29T23:13:01.836Z,3.17
2023-03-29T23:15:29.587Z,2.42
2023-03-29T23:17:58.517Z,2.90
2023-03-29T23:20:27.284Z,2.80
2023-03-29T23:22:53.626Z,3.20
2023-03-29T23:25:19.963Z,2.78
2023-03-29T23:27:46.256Z,2.67
2023-03-29T23:30:12.658Z,2.50
2023-03-29T23:32:39.004Z,2.83
2023-03-29T23:35:08.062Z,2.97
2023-03-29T23:37:37.248Z,2.60
2023-03-29T23:40:14.383Z,2.50
2023-03-29T23:42:46.614Z,3.20
2023-03-29T23:45:15.480Z,3.03
2023-03-29T23:47:46.200Z,2.85
2023-03-29T23:50:16.113Z,2.85
2023-03-29T23:52:46.490Z,2.40
2023-03-29T23:57:45.926Z,2.80
